Teigen, MT

11:50 PM MDT on October 20, 2014 (GMT -0600)
Lewistown Municipal | Change Station
CLOSE
Current Station
Airport
Location: Lewistown,
Elevation: 1270 m
Nearby Weather Stations

Elev 1270 m 47.05 °N, 109.47 °W | Updated 56 minutes ago

Clear
Clear
12 °C
Feels Like 12 °C
N
9
Wind Variable Wind from East

Today
High -- | Low -- °C
--% Chance of Precip.
Yesterday
High -- | Low -- °C
Precip. -- mm
7:39 AM 6:17 PM
Waning Crescent, 7% visible
Pressure 1006 hPa
Visibility 16.1 kilometers
Clouds Clear
Dew Point 0 °C
Humidity 43%
Rainfall 0.0 mm
Snow Depth Not available.
UV 0 out of 12
Pollen 2.70 out of 12
Air Quality Not available.
Flu Activity No Activity
METAR KLWT 210454Z AUTO 08005KT 10SM CLR 12/00 A2978 RMK AO2 SLP059 T01220000

More Conditions Fewer Conditions

Pressure 1006 hPa
Visibility 16.1 kilometers
Clouds Clear
Dew Point 0 °C
Humidity 43%
Rainfall 0.0 mm
Snow Depth Not available.
UV 0 out of 12
Pollen 2.70 out of 12
Air Quality Not available.
Flu Activity No Activity
METAR KLWT 210454Z AUTO 08005KT 10SM CLR 12/00 A2978 RMK AO2 SLP059 T01220000

More Conditions Fewer Conditions

10-Day Weather Forecast

Almanac

Astronomy

Oct. 20, 2014 Rise Set
Actual Time 7:39 AM MDT 6:17 PM MDT
Civil Twilight 7:08 AM MDT 6:48 PM MDT
Nautical Twilight 6:33 AM MDT 7:24 PM MDT
Astronomical Twilight 5:57 AM MDT 7:59 PM MDT
Moon 4:19 AM MDT (10/20) 4:52 PM MDT (10/20)
Length of Visible Light 11h 40m
Length of Day
10h 38m
Tomorrow will be 3m 13s shorter.
Waning Crescent, 7% of the Moon is Illuminated
Oct 21
Waning Crescent
Oct 23
New
Oct 30
First Quarter
Nov 6
Full
Nov 14
Last Quarter

Yesterday's Extremes

State Highs State Lows

Community

WunderPhotos

Upload Photos

1,763,613 photos uploaded!

Nearby

Snow Depth

Station Depth Elevation
Crystal Lake 0 in 6050 ft
Daisy Peak 0 in 7600 ft
Spur Park 0 in 8100 ft
Deadman Creek 0 in 6450 ft
Onion Park 0 in 7410 ft

Earthquake Activity

City Distance Mag. Time & Date
No recent earthquake activity has been reported nearby.
Minimum magnitude displayed is 2.5.

Coastal Water Temperatures

Place Temperature
No Stations Reporting

Nearby Weather Stations